createdAt,value
2022-12-11T00:01:32.640Z,97063.63
2022-12-11T00:04:38.083Z,97069.47
2022-12-11T00:07:44.429Z,97070.47
2022-12-11T00:10:52.885Z,97055.53
2022-12-11T00:13:59.170Z,97044.34
2022-12-11T00:17:07.591Z,97047.69
2022-12-11T00:20:14.953Z,97058.44
2022-12-11T00:23:20.755Z,97040.50
2022-12-11T00:26:27.281Z,97027.56
2022-12-11T00:29:32.709Z,97037.81
2022-12-11T00:32:42.176Z,97030.91
2022-12-11T00:35:50.464Z,97036.44
2022-12-11T00:38:58.118Z,97025.88
2022-12-11T00:42:03.645Z,97037.75
2022-12-11T00:45:11.305Z,97025.25
2022-12-11T00:48:20.684Z,97025.94
2022-12-11T00:51:27.592Z,97032.88
2022-12-11T00:54:34.376Z,97031.03
2022-12-11T00:57:40.698Z,97029.28
2022-12-11T01:00:48.477Z,97028.22
2022-12-11T01:04:28.585Z,97027.59
2022-12-11T01:07:34.883Z,97032.84
2022-12-11T01:10:40.573Z,97042.09
2022-12-11T01:13:47.176Z,97034.56
2022-12-11T01:16:52.843Z,97032.84
2022-12-11T01:20:01.900Z,97035.22
2022-12-11T01:23:07.312Z,97029.50
2022-12-11T01:26:17.882Z,97022.22
2022-12-11T01:29:23.288Z,97014.34
2022-12-11T01:32:31.075Z,97016.56
2022-12-11T01:35:39.530Z,97022.50
2022-12-11T01:38:47.723Z,97013.19
2022-12-11T01:41:53.305Z,97004.72
2022-12-11T01:45:45.143Z,97003.00
2022-12-11T01:48:51.043Z,97002.56
2022-12-11T01:52:09.460Z,97004.38
2022-12-11T01:55:15.594Z,97018.28
2022-12-11T01:58:25.352Z,96999.22
2022-12-11T02:01:40.136Z,97004.13
2022-12-11T02:04:50.203Z,97000.66
2022-12-11T02:08:04.018Z,97003.19
2022-12-11T02:11:23.347Z,97000.78
2022-12-11T02:14:42.436Z,97019.81
2022-12-11T02:18:00.784Z,97011.34
2022-12-11T02:21:18.688Z,97001.22
2022-12-11T02:24:53.660Z,97019.81
2022-12-11T02:28:19.331Z,97018.41
2022-12-11T02:31:37.277Z,97017.25
2022-12-11T02:34:51.225Z,97011.03
2022-12-11T02:38:05.929Z,97009.34
2022-12-11T02:41:15.614Z,97015.25
2022-12-11T02:44:33.508Z,97003.28
2022-12-11T02:47:42.584Z,97015.50
2022-12-11T02:50:56.657Z,96978.50
2022-12-11T02:54:03.981Z,96990.38
2022-12-11T02:57:19.865Z,96988.97
2022-12-11T03:00:28.052Z,96999.81
2022-12-11T03:03:34.521Z,96988.63
2022-12-11T03:06:50.239Z,97001.88
2022-12-11T03:09:57.400Z,96983.66
2022-12-11T03:13:05.744Z,96973.38
2022-12-11T03:16:29.778Z,96990.19
2022-12-11T03:19:43.361Z,96940.19
2022-12-11T03:22:57.216Z,96986.88
2022-12-11T03:26:08.415Z,96959.22
2022-12-11T03:29:24.215Z,96990.13
2022-12-11T03:32:43.613Z,96997.09
2022-12-11T03:35:59.094Z,97001.28
2022-12-11T03:39:12.535Z,96983.03
2022-12-11T03:42:24.793Z,96987.91
2022-12-11T03:45:33.762Z,96978.75
2022-12-11T03:48:49.511Z,96973.22
2022-12-11T03:52:01.148Z,96979.00
2022-12-11T03:55:11.172Z,96970.16
2022-12-11T03:58:16.772Z,96981.47
2022-12-11T04:01:23.555Z,96959.91
2022-12-11T04:04:32.201Z,96958.13
2022-12-11T04:07:39.046Z,96965.47
2022-12-11T04:10:45.657Z,96962.88
2022-12-11T04:14:12.673Z,96943.13
2022-12-11T04:17:35.721Z,96967.66
2022-12-11T04:20:59.557Z,96956.97
2022-12-11T04:24:19.957Z,96955.91
2022-12-11T04:27:42.646Z,96959.91
2022-12-11T04:30:52.798Z,96951.84
2022-12-11T04:33:59.155Z,96959.41
2022-12-11T04:37:07.288Z,96957.84
2022-12-11T04:40:17.924Z,96956.69
2022-12-11T04:43:23.258Z,96951.69
2022-12-11T04:46:29.543Z,96955.16
2022-12-11T04:49:35.009Z,96950.63
2022-12-11T04:52:44.370Z,96944.50
2022-12-11T04:55:49.804Z,96935.91
2022-12-11T04:58:55.983Z,96942.63
2022-12-11T05:02:01.405Z,96937.97
2022-12-11T05:05:13.044Z,96945.38
2022-12-11T05:08:22.369Z,96944.41
2022-12-11T05:11:28.656Z,96946.50
2022-12-11T05:14:34.056Z,96945.06
2022-12-11T05:17:40.681Z,96933.72
2022-12-11T05:20:46.493Z,96930.88
2022-12-11T05:23:55.534Z,96936.97
2022-12-11T05:27:00.904Z,96940.56
2022-12-11T05:30:08.801Z,96927.84
2022-12-11T05:33:14.221Z,96930.22
2022-12-11T05:36:25.025Z,96929.97
2022-12-11T05:39:33.359Z,96931.72
2022-12-11T05:42:39.641Z,96926.63
2022-12-11T05:45:45.014Z,96934.31
2022-12-11T05:48:55.236Z,96915.13
2022-12-11T05:52:00.623Z,96929.69
2022-12-11T05:55:11.393Z,96920.94
2022-12-11T05:58:17.082Z,96930.41
2022-12-11T06:01:27.139Z,96926.34
2022-12-11T06:04:32.951Z,96926.16
2022-12-11T06:07:39.502Z,96928.88
2022-12-11T06:10:53.278Z,96934.19
2022-12-11T06:14:00.341Z,96940.44
2022-12-11T06:17:05.685Z,96948.25
2022-12-11T06:20:13.076Z,96935.19
2022-12-11T06:23:19.190Z,96937.94
2022-12-11T06:26:29.935Z,96946.69
2022-12-11T06:29:35.918Z,96952.09
2022-12-11T06:32:42.261Z,96947.91
2022-12-11T06:35:47.658Z,96949.72
2022-12-11T06:38:56.484Z,96946.16
2022-12-11T06:42:04.623Z,96955.78
2022-12-11T06:45:13.833Z,96964.34
2022-12-11T06:48:19.591Z,96965.59
2022-12-11T06:51:26.862Z,96964.22
2022-12-11T06:54:32.227Z,96969.59
2022-12-11T06:57:41.167Z,96966.16
2022-12-11T07:00:49.219Z,96956.75
2022-12-11T07:03:57.916Z,96957.00
2022-12-11T07:07:04.398Z,96979.25
2022-12-11T07:10:12.574Z,96963.34
2022-12-11T07:13:20.705Z,96956.47
2022-12-11T07:16:27.067Z,96947.34
2022-12-11T07:19:32.433Z,96959.13
2022-12-11T07:22:44.643Z,96951.06
2022-12-11T07:25:54.765Z,96949.13
2022-12-11T07:29:04.937Z,96958.72
2022-12-11T07:32:10.900Z,96951.88
2022-12-11T07:35:17.296Z,96955.25
2022-12-11T07:38:22.627Z,96977.31
2022-12-11T07:41:29.045Z,96974.03
2022-12-11T07:44:37.400Z,96985.31
2022-12-11T07:47:46.978Z,96992.47
2022-12-11T07:50:53.342Z,96972.78
2022-12-11T07:54:03.304Z,96980.34
2022-12-11T07:57:14.220Z,96986.69
2022-12-11T08:00:23.776Z,96997.94
2022-12-11T08:03:29.201Z,96979.75
2022-12-11T08:06:38.720Z,96997.28
2022-12-11T08:09:44.329Z,97006.13
2022-12-11T08:12:50.604Z,96982.16
2022-12-11T08:15:58.737Z,96992.34
2022-12-11T08:19:04.950Z,96973.41
2022-12-11T08:22:15.721Z,96959.66
2022-12-11T08:25:30.784Z,96986.66
2022-12-11T08:28:36.727Z,96976.34
2022-12-11T08:31:46.141Z,96974.34
2022-12-11T08:34:53.816Z,96977.69
2022-12-11T08:38:00.431Z,96981.75
2022-12-11T08:41:12.836Z,96987.66
2022-12-11T08:44:20.012Z,96984.56
2022-12-11T08:47:30.203Z,96983.66
2022-12-11T08:50:36.543Z,96988.00
2022-12-11T08:53:42.650Z,96991.41
2022-12-11T08:56:52.302Z,97000.00
2022-12-11T09:00:00.343Z,96990.00
2022-12-11T09:03:12.772Z,96988.84
2022-12-11T09:06:22.851Z,96952.03
2022-12-11T09:09:29.466Z,97005.19
2022-12-11T09:12:36.671Z,97014.41
2022-12-11T09:15:44.670Z,96983.47
2022-12-11T09:18:57.452Z,96977.94
2022-12-11T09:22:03.692Z,96966.56
2022-12-11T09:25:10.767Z,96971.63
2022-12-11T09:28:17.666Z,96967.50
2022-12-11T09:31:26.979Z,96956.03
2022-12-11T09:34:36.476Z,96959.91
2022-12-11T09:37:41.865Z,96966.13
2022-12-11T09:40:48.081Z,96963.38
2022-12-11T09:44:05.489Z,96971.00
2022-12-11T09:47:35.005Z,96976.38
2022-12-11T09:50:44.348Z,96971.94
2022-12-11T09:53:51.823Z,96972.41
2022-12-11T09:57:15.365Z,96955.50
2022-12-11T10:00:33.595Z,96945.19
2022-12-11T10:04:08.993Z,96954.63
2022-12-11T10:07:30.699Z,96956.91
2022-12-11T10:10:47.417Z,96966.91
2022-12-11T10:14:11.302Z,96955.50
2022-12-11T10:17:29.056Z,96968.41
2022-12-11T10:20:40.485Z,96947.34
2022-12-11T10:23:57.316Z,96962.81
2022-12-11T10:27:21.616Z,96957.22
2022-12-11T10:30:34.469Z,96953.69
2022-12-11T10:34:03.523Z,96940.66
2022-12-11T10:37:09.108Z,96940.47
2022-12-11T10:40:25.919Z,96960.97
2022-12-11T10:43:42.493Z,96943.78
2022-12-11T10:46:52.623Z,96951.75
2022-12-11T10:50:02.454Z,96946.66
2022-12-11T10:53:09.121Z,96938.75
2022-12-11T10:56:17.630Z,96930.09
2022-12-11T10:59:35.797Z,96936.66
2022-12-11T11:02:44.667Z,96929.94
2022-12-11T11:05:51.383Z,96935.25
2022-12-11T11:09:00.420Z,96876.13
2022-12-11T11:12:24.543Z,96913.28
2022-12-11T11:15:33.506Z,96909.69
2022-12-11T11:18:41.890Z,96926.06
2022-12-11T11:21:55.484Z,96904.41
2022-12-11T11:25:05.084Z,96901.03
2022-12-11T11:28:26.961Z,96900.91
2022-12-11T11:31:38.879Z,96907.03
2022-12-11T11:34:44.832Z,96906.91
2022-12-11T11:38:07.938Z,96913.56
2022-12-11T11:41:22.905Z,96922.41
2022-12-11T11:44:41.059Z,96899.47
2022-12-11T11:48:00.072Z,96899.94
2022-12-11T11:51:19.268Z,96846.19
2022-12-11T11:54:37.620Z,96897.13
2022-12-11T11:57:56.534Z,96898.81
2022-12-11T12:01:04.728Z,96889.50
2022-12-11T12:04:12.242Z,96897.44
2022-12-11T12:07:40.325Z,96908.03
2022-12-11T12:11:01.228Z,96900.38
2022-12-11T12:14:50.556Z,96903.47
2022-12-11T12:17:57.768Z,96898.81
2022-12-11T12:21:22.111Z,96921.09
2022-12-11T12:24:46.922Z,96904.81
2022-12-11T12:28:08.060Z,96887.19
2022-12-11T12:31:47.282Z,96896.03
2022-12-11T12:35:17.127Z,96903.97
2022-12-11T12:38:38.055Z,96890.03
2022-12-11T12:42:07.265Z,96903.84
2022-12-11T12:45:31.636Z,96902.16
2022-12-11T12:48:37.645Z,96901.38
2022-12-11T12:51:48.766Z,96898.69
2022-12-11T12:55:18.967Z,96901.19
2022-12-11T12:58:32.056Z,96914.50
2022-12-11T13:01:37.564Z,96910.31
2022-12-11T13:04:55.979Z,96900.34
2022-12-11T13:08:08.849Z,96906.66
2022-12-11T13:11:23.834Z,96911.63
2022-12-11T13:14:33.952Z,96922.78
2022-12-11T13:17:42.260Z,96923.38
2022-12-11T13:20:53.342Z,96929.25
2022-12-11T13:24:19.811Z,96918.16
2022-12-11T13:27:29.484Z,96923.03
2022-12-11T13:30:36.532Z,96918.63
2022-12-11T13:33:49.507Z,96920.94
2022-12-11T13:37:00.845Z,96919.66
2022-12-11T13:40:20.337Z,96927.09
2022-12-11T13:43:32.228Z,96927.75
2022-12-11T13:46:42.813Z,96921.56
2022-12-11T13:50:03.445Z,96928.41
2022-12-11T13:53:08.861Z,96923.44
2022-12-11T13:56:23.147Z,96933.78
2022-12-11T13:59:33.288Z,96941.41
2022-12-11T14:02:44.275Z,96941.00
2022-12-11T14:05:49.829Z,96935.84
2022-12-11T14:09:01.869Z,96958.50
2022-12-11T14:12:10.642Z,96944.06
2022-12-11T14:15:19.713Z,96953.25
2022-12-11T14:18:30.548Z,96951.56
2022-12-11T14:21:38.032Z,96953.13
2022-12-11T14:24:53.647Z,96959.13
2022-12-11T14:28:04.727Z,96969.25
2022-12-11T14:31:10.898Z,96965.56
2022-12-11T14:34:24.063Z,96958.28
2022-12-11T14:37:31.344Z,96963.31
2022-12-11T14:40:46.728Z,96967.00
2022-12-11T14:44:02.581Z,96923.78
2022-12-11T14:47:20.021Z,96958.00
2022-12-11T14:50:34.267Z,96959.72
2022-12-11T14:53:50.207Z,96961.53
2022-12-11T14:56:58.108Z,96950.88
2022-12-11T15:00:09.925Z,96959.84
2022-12-11T15:03:27.751Z,96961.84
2022-12-11T15:06:37.460Z,96957.28
2022-12-11T15:09:43.772Z,96948.38
2022-12-11T15:12:50.196Z,96949.09
2022-12-11T15:16:00.471Z,96958.72
2022-12-11T15:19:08.796Z,96973.50
2022-12-11T15:22:20.589Z,96970.81
2022-12-11T15:25:32.997Z,96960.97
2022-12-11T15:28:42.138Z,96977.66
2022-12-11T15:32:02.761Z,96980.03
2022-12-11T15:35:26.144Z,96975.75
2022-12-11T15:38:39.763Z,96984.34
2022-12-11T15:41:46.512Z,96973.75
2022-12-11T15:44:53.132Z,96970.25
2022-12-11T15:48:01.341Z,96970.31
2022-12-11T15:51:08.709Z,96916.25
2022-12-11T15:54:14.395Z,96977.53
2022-12-11T15:57:26.001Z,96974.16
2022-12-11T16:00:31.944Z,96986.63
2022-12-11T16:03:41.280Z,96976.16
2022-12-11T16:06:47.171Z,96983.69
2022-12-11T16:09:53.803Z,96989.63
2022-12-11T16:12:59.931Z,96993.13
2022-12-11T16:16:06.571Z,96990.53
2022-12-11T16:19:15.530Z,96986.84
2022-12-11T16:22:21.728Z,96998.94
2022-12-11T16:25:27.829Z,96989.28
2022-12-11T16:28:34.098Z,96983.09
2022-12-11T16:31:39.501Z,96993.22
2022-12-11T16:34:48.679Z,96992.19
2022-12-11T16:37:55.619Z,96996.53
2022-12-11T16:41:06.104Z,97007.31
2022-12-11T16:44:11.550Z,97003.28
2022-12-11T16:47:18.121Z,96997.19
2022-12-11T16:50:26.694Z,97001.69
2022-12-11T16:53:33.101Z,97006.16
2022-12-11T16:56:38.899Z,97007.31
2022-12-11T16:59:50.906Z,97015.47
2022-12-11T17:02:57.450Z,97003.28
2022-12-11T17:06:10.561Z,97004.84
2022-12-11T17:09:16.524Z,97022.72
2022-12-11T17:12:27.926Z,97003.63
2022-12-11T17:15:33.352Z,97008.88
2022-12-11T17:18:40.397Z,97003.06
2022-12-11T17:21:51.788Z,97021.84
2022-12-11T17:24:58.374Z,97005.69
2022-12-11T17:28:03.796Z,97004.66
2022-12-11T17:31:13.037Z,97003.38
2022-12-11T17:34:18.963Z,97011.22
2022-12-11T17:37:27.974Z,97004.09
2022-12-11T17:40:33.424Z,97005.47
2022-12-11T17:43:39.795Z,97003.22
2022-12-11T17:46:45.223Z,97008.53
2022-12-11T17:49:51.592Z,97001.19
2022-12-11T17:53:00.087Z,97019.03
2022-12-11T17:56:10.915Z,97014.50
2022-12-11T17:59:16.505Z,97009.34
2022-12-11T18:02:22.993Z,97012.00
2022-12-11T18:05:28.960Z,97026.91
2022-12-11T18:08:39.043Z,97020.59
2022-12-11T18:11:44.841Z,97034.72
2022-12-11T18:14:51.189Z,97023.16
2022-12-11T18:18:00.005Z,97016.00
2022-12-11T18:21:09.811Z,97013.44
2022-12-11T18:24:21.160Z,97011.94
2022-12-11T18:27:28.106Z,97008.78
2022-12-11T18:30:33.565Z,97014.34
2022-12-11T18:33:41.928Z,97011.38
2022-12-11T18:36:47.278Z,97012.75
2022-12-11T18:39:56.677Z,97004.31
2022-12-11T18:43:02.090Z,97000.09
2022-12-11T18:46:10.749Z,97018.13
2022-12-11T18:49:16.214Z,97020.00
2022-12-11T18:52:22.666Z,97027.72
2022-12-11T18:55:30.995Z,97001.66
2022-12-11T18:58:37.813Z,97012.88
2022-12-11T19:01:43.426Z,97023.84
2022-12-11T19:04:49.756Z,97021.53
2022-12-11T19:07:55.192Z,97024.22
2022-12-11T19:11:04.211Z,97024.03
2022-12-11T19:14:11.480Z,97022.34
2022-12-11T19:17:18.003Z,97023.94
2022-12-11T19:20:47.883Z,97019.00
2022-12-11T19:23:50.097Z,97011.44
2022-12-11T19:26:58.376Z,97025.13
2022-12-11T19:30:04.639Z,97017.00
2022-12-11T19:33:10.298Z,97022.06
2022-12-11T19:36:20.188Z,97012.50
2022-12-11T19:39:25.889Z,97007.47
2022-12-11T19:42:34.926Z,97012.09
2022-12-11T19:45:41.683Z,97012.25
2022-12-11T19:48:51.792Z,97004.31
2022-12-11T19:51:57.551Z,97010.72
2022-12-11T19:55:07.467Z,97014.38
2022-12-11T19:58:15.819Z,97009.88
2022-12-11T20:01:26.116Z,97018.25
2022-12-11T20:04:31.585Z,97012.38
2022-12-11T20:07:38.860Z,97011.69
2022-12-11T20:10:44.386Z,97013.16
2022-12-11T20:13:55.697Z,97006.47
2022-12-11T20:17:11.873Z,97022.47
2022-12-11T20:20:19.931Z,97019.19
2022-12-11T20:23:25.360Z,97017.00
2022-12-11T20:26:32.724Z,97012.63
2022-12-11T20:29:41.269Z,97024.31
2022-12-11T20:32:48.282Z,97026.41
2022-12-11T20:35:53.914Z,97021.38
2022-12-11T20:39:04.059Z,97014.53
2022-12-11T20:42:12.949Z,97016.13
2022-12-11T20:45:22.379Z,97017.06
2022-12-11T20:48:27.748Z,97014.84
2022-12-11T20:51:34.100Z,97013.94
2022-12-11T20:54:39.551Z,97015.56
2022-12-11T20:57:46.602Z,97024.34
2022-12-11T21:00:55.242Z,97001.66
2022-12-11T21:04:03.667Z,97020.53
2022-12-11T21:07:09.724Z,97016.63
2022-12-11T21:10:16.719Z,97022.06
2022-12-11T21:13:22.472Z,97012.66
2022-12-11T21:16:31.982Z,97019.31
2022-12-11T21:19:37.443Z,97022.00
2022-12-11T21:22:43.695Z,97012.97
2022-12-11T21:25:49.052Z,97017.25
2022-12-11T21:28:55.757Z,97007.72
2022-12-11T21:32:04.823Z,97004.22
2022-12-11T21:35:12.833Z,97008.66
2022-12-11T21:38:18.419Z,97013.84
2022-12-11T21:41:27.395Z,97012.47
2022-12-11T21:48:03.562Z,97012.81
2022-12-11T21:51:15.753Z,97011.97
2022-12-11T21:54:22.740Z,97005.25
2022-12-11T21:57:29.067Z,97010.84
2022-12-11T22:00:35.352Z,97007.16
2022-12-11T22:03:43.537Z,97013.44
2022-12-11T22:06:50.239Z,97007.16
2022-12-11T22:09:55.750Z,97005.34
2022-12-11T22:13:02.017Z,96997.72
2022-12-11T22:16:07.798Z,96997.72
2022-12-11T22:19:17.574Z,97007.81
2022-12-11T22:22:23.641Z,97009.16
2022-12-11T22:25:29.917Z,97019.38
2022-12-11T22:28:35.387Z,97004.53
2022-12-11T22:31:41.773Z,97010.53
2022-12-11T22:34:49.950Z,97015.88
2022-12-11T22:37:56.473Z,97009.44
2022-12-11T22:41:03.197Z,97009.47
2022-12-11T22:44:09.473Z,97005.91
2022-12-11T22:47:15.011Z,97008.94
2022-12-11T22:50:24.444Z,96997.09
2022-12-11T22:53:29.816Z,97000.16
2022-12-11T22:56:36.540Z,97001.09
2022-12-11T22:59:50.468Z,97005.97
2022-12-11T23:02:56.973Z,96996.25
2022-12-11T23:06:09.748Z,97000.84
2022-12-11T23:09:16.241Z,96990.19
2022-12-11T23:12:21.684Z,96991.03
2022-12-11T23:15:27.967Z,96993.59
2022-12-11T23:18:33.308Z,96997.25
2022-12-11T23:21:42.563Z,96987.28
2022-12-11T23:24:48.007Z,96998.28
2022-12-11T23:27:54.331Z,96990.38
2022-12-11T23:30:59.863Z,96994.84
2022-12-11T23:34:06.533Z,96991.88
2022-12-11T23:37:14.702Z,96991.91
2022-12-11T23:40:21.331Z,96996.34
2022-12-11T23:43:26.871Z,96993.19
2022-12-11T23:46:34.659Z,96996.91
2022-12-11T23:49:40.380Z,96987.59
2022-12-11T23:52:49.617Z,96987.41
2022-12-11T23:55:55.347Z,96984.09
2022-12-11T23:59:01.905Z,96988.56
